Time;durP1;ratioP1;P1;durP2;ratioP2;P2;SDS_P1;SDS_P2;PMS_P1;PMS_P2;Temp;Humidity;BMP_temperature;BMP_pressure;BME280_temperature;BME280_humidity;BME280_pressure;Samples;Min_cycle;Max_cycle;Signal;HPM_P1;HPM_P2
2021/03/22 00:00:28;;;;;;;20.43;12.77;;;;;;;-0.31;100.00;95883.31;1034937;28;20038;-71
2021/03/22 00:01:04;;;;;;;19.35;12.63;;;;;;;-0.36;100.00;95881.31;1039124;28;20279;-71
2021/03/22 00:01:35;;;;;;;24.52;11.88;;;;;;;-0.30;100.00;95880.56;1035195;28;20704;-70
2021/03/22 00:02:05;;;;;;;16.13;10.80;;;;;;;-0.39;100.00;95878.31;1027916;28;20027;-72
2021/03/22 00:02:36;;;;;;;21.97;12.53;;;;;;;-0.33;100.00;95891.25;1035129;28;20454;-71
2021/03/22 00:03:07;;;;;;;18.63;11.43;;;;;;;-0.34;100.00;95889.63;1031133;28;20431;-71
2021/03/22 00:03:37;;;;;;;20.40;12.57;;;;;;;-0.33;100.00;95885.31;1035187;28;20026;-71
2021/03/22 00:04:08;;;;;;;17.87;11.90;;;;;;;-0.41;100.00;95878.50;1035391;28;20022;-71
2021/03/22 00:04:38;;;;;;;19.27;12.20;;;;;;;-0.34;100.00;95889.63;1035315;28;20022;-71
2021/03/22 00:05:09;;;;;;;20.83;13.17;;;;;;;-0.34;100.00;95889.63;1039147;28;20029;-71
2021/03/22 00:05:40;;;;;;;20.50;13.37;;;;;;;-0.36;100.00;95886.47;1047604;28;20461;-73
2021/03/22 00:06:10;;;;;;;18.83;11.97;;;;;;;-0.41;100.00;95873.34;1039408;28;20021;-71
2021/03/22 00:06:40;;;;;;;19.70;12.00;;;;;;;-0.44;100.00;95873.72;1043379;28;20080;-71
2021/03/22 00:07:11;;;;;;;21.97;12.83;;;;;;;-0.33;100.00;95893.84;1043195;28;20418;-71
2021/03/22 00:07:41;;;;;;;20.97;11.83;;;;;;;-0.31;100.00;95888.47;1043491;28;20063;-71
2021/03/22 00:08:12;;;;;;;21.97;11.43;;;;;;;-0.29;100.00;95889.09;1043364;28;20013;-70
2021/03/22 00:08:42;;;;;;;20.53;12.07;;;;;;;-0.31;100.00;95888.47;1039318;28;20711;-72
2021/03/22 00:09:13;;;;;;;20.90;12.57;;;;;;;-0.33;100.00;95891.25;1043091;28;20097;-71
2021/03/22 00:09:43;;;;;;;21.27;12.40;;;;;;;-0.36;100.00;95883.91;1043435;28;20751;-71
2021/03/22 00:10:14;;;;;;;20.17;11.67;;;;;;;-0.37;100.00;95884.88;1046831;28;20012;-72
2021/03/22 00:10:45;;;;;;;24.43;13.07;;;;;;;-0.37;100.00;95895.19;1043026;28;20032;-72
2021/03/22 00:11:16;;;;;;;22.77;12.65;;;;;;;-0.40;100.00;95885.28;1030844;28;20026;-70
2021/03/22 00:11:46;;;;;;;20.80;12.40;;;;;;;-0.42;100.00;95882.06;1027375;28;20551;-72
2021/03/22 00:12:17;;;;;;;20.67;11.67;;;;;;;-0.51;100.00;95873.69;1031233;28;20419;-71
2021/03/22 00:12:47;;;;;;;17.70;11.90;;;;;;;-0.42;100.00;95886.44;1027072;28;20480;-71
2021/03/22 00:13:19;;;;;;;23.93;13.13;;;;;;;-0.45;100.00;95879.09;1034896;28;20072;-71
2021/03/22 00:13:49;;;;;;;17.45;12.55;;;;;;;-0.47;100.00;95876.69;1035421;28;20033;-71
2021/03/22 00:14:20;;;;;;;21.80;11.87;;;;;;;-0.48;100.00;95878.47;1039402;28;20060;-71
2021/03/22 00:14:50;;;;;;;23.00;12.57;;;;;;;-0.48;100.00;95887.97;1043317;28;20020;-71
2021/03/22 00:15:22;;;;;;;19.40;12.13;;;;;;;-0.55;100.00;95871.69;1039093;28;20029;-71
2021/03/22 00:15:55;;;;;;;23.40;12.38;;;;;;;-0.55;100.00;95874.25;1033408;28;20080;-71
2021/03/22 00:16:25;;;;;;;21.17;12.20;;;;;;;-0.50;100.00;95879.66;1031197;28;20064;-71
2021/03/22 00:16:56;;;;;;;20.67;12.13;;;;;;;-0.49;100.00;95884.63;1027216;28;20493;-72
2021/03/22 00:17:26;;;;;;;23.27;12.77;;;;;;;-0.49;100.00;95881.25;1031394;28;20018;-71
2021/03/22 00:17:57;;;;;;;23.83;12.63;;;;;;;-0.57;100.00;95874.47;1035537;28;20017;-71
2021/03/22 00:18:29;;;;;;;22.57;12.43;;;;;;;-0.52;100.00;95885.00;1039347;28;20036;-72
2021/03/22 00:18:59;;;;;;;18.85;11.98;;;;;;;-0.51;100.00;95883.19;1031013;28;20542;-72
2021/03/22 00:19:30;;;;;;;20.73;12.87;;;;;;;-0.53;100.00;95880.81;1031002;28;20031;-70
2021/03/22 00:20:00;;;;;;;17.90;11.50;;;;;;;-0.52;100.00;95881.63;1022797;28;20027;-72
2021/03/22 00:20:31;;;;;;;21.13;12.20;;;;;;;-0.54;100.00;95879.25;1027281;28;20424;-71
2021/03/22 00:21:01;;;;;;;24.83;13.13;;;;;;;-0.51;100.00;95883.19;1041891;28;20040;-71
2021/03/22 00:21:32;;;;;;;24.93;12.03;;;;;;;-0.51;100.00;95885.78;1043164;28;20184;-70
2021/03/22 00:22:02;;;;;;;20.70;12.73;;;;;;;-0.53;100.00;95877.47;1047625;28;20033;-71
2021/03/22 00:22:33;;;;;;;22.10;12.73;;;;;;;-0.55;100.00;95875.06;1039020;28;20442;-71
2021/03/22 00:23:04;;;;;;;22.93;13.50;;;;;;;-0.57;100.00;95876.22;1035078;28;20845;-71
2021/03/22 00:23:34;;;;;;;21.33;12.77;;;;;;;-0.59;100.00;95875.63;1031053;28;20025;-71
2021/03/22 00:24:06;;;;;;;23.97;13.20;;;;;;;-0.58;100.00;95882.38;1035010;28;20017;-71
2021/03/22 00:24:36;;;;;;;22.23;13.07;;;;;;;-0.60;100.00;95874.84;1035204;28;20026;-71
2021/03/22 00:25:07;;;;;;;22.57;12.63;;;;;;;-0.61;100.00;95875.81;1034111;28;20037;-70
2021/03/22 00:25:37;;;;;;;22.43;13.10;;;;;;;-0.66;100.00;95869.66;1027111;28;20037;-71
2021/03/22 00:26:08;;;;;;;20.33;12.63;;;;;;;-0.73;100.00;95867.03;1033610;28;20758;-71
2021/03/22 00:26:38;;;;;;;21.13;12.83;;;;;;;-0.65;100.00;95872.03;1029760;28;20052;-70
2021/03/22 00:27:09;;;;;;;25.00;13.17;;;;;;;-0.66;100.00;95875.59;1031074;28;20219;-71
2021/03/22 00:27:39;;;;;;;25.13;13.00;;;;;;;-0.69;100.00;95872.59;1031076;28;20045;-72
2021/03/22 00:28:10;;;;;;;23.47;13.57;;;;;;;-0.76;100.00;95860.47;1031025;28;20057;-71
2021/03/22 00:28:41;;;;;;;19.08;12.90;;;;;;;-0.67;100.00;95868.03;1031084;28;20113;-72
2021/03/22 00:29:11;;;;;;;22.53;14.13;;;;;;;-0.73;100.00;95864.44;1031030;28;20034;-71
2021/03/22 00:29:42;;;;;;;22.53;13.57;;;;;;;-0.69;100.00;95873.38;1035184;28;20061;-72
2021/03/22 00:30:18;;;;;;;24.60;13.63;;;;;;;-0.73;100.00;95867.81;1034371;28;20057;-69
2021/03/22 00:30:48;;;;;;;23.45;13.07;;;;;;;-0.77;100.00;95861.47;1039086;28;20025;-71
2021/03/22 00:31:19;;;;;;;24.53;13.10;;;;;;;-0.73;100.00;95872.97;1038988;28;20521;-70
2021/03/22 00:31:49;;;;;;;22.27;13.17;;;;;;;-0.84;100.00;95852.91;1039820;28;20489;-71
2021/03/22 00:32:20;;;;;;;20.20;12.90;;;;;;;-0.76;100.00;95870.78;1043464;28;20421;-71
2021/03/22 00:32:50;;;;;;;24.63;13.90;;;;;;;-0.87;100.00;95850.69;1047523;28;20066;-71
2021/03/22 00:33:21;;;;;;;22.63;12.77;;;;;;;-0.79;100.00;95873.72;1047381;28;20559;-70
2021/03/22 00:33:52;;;;;;;24.77;14.00;;;;;;;-0.80;100.00;95869.56;1043319;28;20554;-70
2021/03/22 00:34:22;;;;;;;22.20;13.87;;;;;;;-0.88;100.00;95856.00;1038529;28;20022;-70
2021/03/22 00:34:53;;;;;;;23.70;14.07;;;;;;;-0.82;100.00;95860.41;1035561;28;20030;-71
2021/03/22 00:35:23;;;;;;;30.10;14.03;;;;;;;-0.90;100.00;95858.78;1039127;28;20553;-71
2021/03/22 00:35:54;;;;;;;26.77;14.80;;;;;;;-0.84;100.00;95868.34;1039150;28;20068;-72
2021/03/22 00:36:24;;;;;;;23.40;14.10;;;;;;;-0.86;100.00;95870.31;1039233;28;20095;-71
2021/03/22 00:36:55;;;;;;;21.60;13.80;;;;;;;-0.90;100.00;95863.16;1043240;28;20021;-71
2021/03/22 00:37:25;;;;;;;27.77;14.77;;;;;;;-0.87;100.00;95868.72;1043228;28;20028;-72
2021/03/22 00:37:56;;;;;;;24.40;14.43;;;;;;;-0.89;100.00;95865.53;1043124;28;20021;-71
2021/03/22 00:38:26;;;;;;;22.10;13.47;;;;;;;-0.90;100.00;95868.31;1034997;28;20021;-69
2021/03/22 00:38:57;;;;;;;22.90;13.73;;;;;;;-0.96;100.00;95854.38;1031143;28;20026;-71
2021/03/22 00:39:27;;;;;;;22.90;13.07;;;;;;;-0.91;100.00;95867.47;1026944;28;20026;-69
2021/03/22 00:39:58;;;;;;;29.20;14.27;;;;;;;-0.89;100.00;95869.88;1026392;28;20465;-72
2021/03/22 00:40:30;;;;;;;21.87;13.87;;;;;;;-1.00;100.00;95848.81;1026755;28;20075;-71
2021/03/22 00:41:01;;;;;;;27.90;13.95;;;;;;;-1.00;100.00;95853.97;1036089;28;20457;-71
2021/03/22 00:41:31;;;;;;;26.83;14.83;;;;;;;-0.95;100.00;95868.84;1038938;28;20033;-71
2021/03/22 00:42:02;;;;;;;21.03;14.00;;;;;;;-0.95;100.00;95871.41;1033210;28;20029;-72
2021/03/22 00:42:32;;;;;;;25.57;14.13;;;;;;;-0.97;100.00;95869.03;1034905;28;20427;-71
2021/03/22 00:43:03;;;;;;;22.83;14.43;;;;;;;-0.97;100.00;95870.81;1035279;28;20026;-70
2021/03/22 00:43:34;;;;;;;26.27;14.23;;;;;;;-1.07;100.00;95853.13;1035149;28;20427;-72
2021/03/22 00:44:05;;;;;;;26.50;15.20;;;;;;;-1.01;100.00;95862.66;1035350;28;20344;-71
2021/03/22 00:44:35;;;;;;;23.10;14.05;;;;;;;-1.02;100.00;95862.84;1039011;28;20552;-72
2021/03/22 00:45:07;;;;;;;28.30;14.83;;;;;;;-1.14;100.00;95847.13;1035282;28;20056;-72
2021/03/22 00:45:37;;;;;;;28.25;14.35;;;;;;;-1.04;100.00;95864.81;1035426;28;20034;-69
2021/03/22 00:46:08;;;;;;;27.43;14.13;;;;;;;-1.17;100.00;95854.41;1039245;28;20391;-72
2021/03/22 00:46:38;;;;;;;28.03;15.27;;;;;;;-1.07;100.00;95867.78;1039021;28;20021;-71
2021/03/22 00:47:09;;;;;;;26.23;15.43;;;;;;;-1.17;100.00;95851.81;1034813;28;20022;-71
2021/03/22 00:47:39;;;;;;;29.77;16.40;;;;;;;-1.16;100.00;95854.22;1035050;28;20025;-71
2021/03/22 00:48:10;;;;;;;24.60;14.47;;;;;;;-1.09;100.00;95864.59;1035154;28;20570;-71
2021/03/22 00:48:40;;;;;;;25.43;15.67;;;;;;;-1.10;100.00;95873.31;1034800;28;20041;-71
2021/03/22 00:49:11;;;;;;;30.30;15.47;;;;;;;-1.09;100.00;95867.16;1030879;28;20035;-71
2021/03/22 00:49:41;;;;;;;25.10;15.13;;;;;;;-1.16;100.00;95858.59;1031105;28;20029;-71
2021/03/22 00:50:28;;;;;;;26.53;14.83;;;;;;;-1.11;100.00;95867.31;1034433;28;20469;-71
2021/03/22 00:50:59;;;;;;;29.67;16.42;;;;;;;-1.16;100.00;95866.31;1041236;28;20406;-71
2021/03/22 00:51:29;;;;;;;24.83;14.50;;;;;;;-1.17;100.00;95862.13;1039125;28;20033;-70
2021/03/22 00:52:00;;;;;;;25.20;14.60;;;;;;;-1.16;100.00;95861.16;1034997;28;20041;-71
2021/03/22 00:52:31;;;;;;;29.70;16.67;;;;;;;-1.16;100.00;95864.53;1037170;28;20026;-72
2021/03/22 00:53:01;;;;;;;30.37;16.10;;;;;;;-1.19;100.00;95872.63;1035190;28;20034;-71
2021/03/22 00:53:32;;;;;;;26.50;16.33;;;;;;;-1.18;100.00;95866.47;1039021;28;20418;-71
2021/03/22 00:54:02;;;;;;;30.77;15.67;;;;;;;-1.22;100.00;95860.13;1039160;28;20479;-71
2021/03/22 00:54:33;;;;;;;28.30;15.90;;;;;;;-1.19;100.00;95863.13;1030975;28;20053;-71
2021/03/22 00:55:04;;;;;;;29.83;17.13;;;;;;;-1.21;100.00;95862.53;1030936;28;20427;-71
2021/03/22 00:55:35;;;;;;;27.95;15.18;;;;;;;-1.22;100.00;95860.91;1034953;28;20030;-70
2021/03/22 00:56:05;;;;;;;28.77;15.10;;;;;;;-1.32;100.00;95846.78;1035763;28;20508;-70
2021/03/22 00:56:36;;;;;;;25.77;14.97;;;;;;;-1.22;100.00;95860.13;1043311;28;20506;-70
2021/03/22 00:57:09;;;;;;;26.50;14.93;;;;;;;-1.27;100.00;95849.59;1038834;28;20045;-72
2021/03/22 00:57:39;;;;;;;28.55;16.42;;;;;;;-1.25;100.00;95865.63;1026918;28;20547;-69
2021/03/22 00:58:10;;;;;;;28.07;15.00;;;;;;;-1.28;100.00;95859.06;1027960;28;20039;-71
2021/03/22 00:58:41;;;;;;;26.00;15.27;;;;;;;-1.23;100.00;95861.09;1027400;28;20382;-71
2021/03/22 00:59:11;;;;;;;28.03;15.67;;;;;;;-1.19;100.00;95868.25;1031210;28;20018;-70
2021/03/22 00:59:42;;;;;;;30.97;15.47;;;;;;;-1.14;100.00;95864.31;1030856;28;20432;-69
2021/03/22 01:00:39;;;;;;;29.83;15.30;;;;;;;-1.15;100.00;95867.91;1030307;28;20392;-70
2021/03/22 01:01:09;;;;;;;29.30;14.57;;;;;;;-1.16;100.00;95863.75;1030821;28;20122;-71
2021/03/22 01:01:40;;;;;;;28.00;14.83;;;;;;;-1.27;100.00;95855.53;1042487;28;20044;-71
2021/03/22 01:02:10;;;;;;;28.97;15.17;;;;;;;-1.20;100.00;95869.25;1040901;28;20025;-71
2021/03/22 01:02:41;;;;;;;25.07;16.07;;;;;;;-1.22;100.00;95865.28;1039944;28;20033;-72
2021/03/22 01:03:13;;;;;;;30.17;15.47;;;;;;;-1.24;100.00;95862.06;1039884;28;20426;-72
2021/03/22 01:03:44;;;;;;;29.10;14.52;;;;;;;-1.25;100.00;95861.28;1036438;28;20072;-70
2021/03/22 01:04:14;;;;;;;28.47;16.23;;;;;;;-1.27;100.00;95863.25;1040321;28;20030;-70
2021/03/22 01:04:45;;;;;;;26.93;14.97;;;;;;;-1.26;100.00;95862.28;1044133;28;20079;-70
2021/03/22 01:05:15;;;;;;;27.80;16.17;;;;;;;-1.37;100.00;95849.91;1043956;28;20029;-71
2021/03/22 01:05:46;;;;;;;30.37;15.77;;;;;;;-1.25;100.00;95860.47;1042816;28;20090;-71
2021/03/22 01:06:16;;;;;;;29.93;16.23;;;;;;;-1.29;100.00;95862.63;1039960;28;20029;-71
2021/03/22 01:06:47;;;;;;;27.67;15.23;;;;;;;-1.25;100.00;95863.84;1040059;28;20021;-70
2021/03/22 01:07:17;;;;;;;29.60;15.37;;;;;;;-1.41;100.00;95846.09;1039698;28;20033;-71
2021/03/22 01:07:48;;;;;;;33.83;16.30;;;;;;;-1.32;100.00;95862.22;1039856;28;20026;-71
2021/03/22 01:08:19;;;;;;;30.07;16.40;;;;;;;-1.32;100.00;95860.44;1044100;28;20061;-71
2021/03/22 01:08:50;;;;;;;28.65;15.98;;;;;;;-1.32;100.00;95857.06;1043953;28;20033;-70
2021/03/22 01:09:20;;;;;;;29.13;16.40;;;;;;;-1.39;100.00;95861.34;1039841;28;20380;-71
2021/03/22 01:09:51;;;;;;;26.03;14.93;;;;;;;-1.36;100.00;95859.22;1035722;28;20125;-71
2021/03/22 01:10:41;;;;;;;37.07;16.27;;;;;;;-1.43;100.00;95854.00;1035340;28;20026;-71
2021/03/22 01:11:13;;;;;;;29.17;14.90;;;;;;;-1.43;100.00;95859.16;1042804;28;20079;-71
2021/03/22 01:11:44;;;;;;;32.53;15.38;;;;;;;-1.43;100.00;95858.38;1039812;28;20041;-71
2021/03/22 01:12:14;;;;;;;29.27;15.67;;;;;;;-1.49;100.00;95848.78;1040115;28;20026;-72
2021/03/22 01:12:45;;;;;;;28.80;15.73;;;;;;;-1.46;100.00;95859.53;1035935;28;20033;-71
2021/03/22 01:13:20;;;;;;;31.07;15.90;;;;;;;-1.42;100.00;95862.53;1031985;28;20526;-70
2021/03/22 01:13:55;;;;;;;29.42;15.13;;;;;;;-1.39;100.00;95859.56;1035677;28;20697;-70
2021/03/22 01:14:25;;;;;;;33.50;16.13;;;;;;;-1.39;100.00;95861.34;1037082;28;20053;-71
2021/03/22 01:14:56;;;;;;;31.33;16.73;;;;;;;-1.43;100.00;95853.22;1041259;28;20445;-71
2021/03/22 01:15:26;;;;;;;27.23;15.73;;;;;;;-1.42;100.00;95850.44;1044713;28;20096;-70
2021/03/22 01:15:57;;;;;;;32.03;16.77;;;;;;;-1.41;100.00;95851.22;1047974;28;20032;-70
2021/03/22 01:16:33;;;;;;;36.60;17.03;;;;;;;-1.44;100.00;95851.63;1052378;28;20078;-70
2021/03/22 01:17:03;;;;;;;33.97;16.15;;;;;;;-1.46;100.00;95854.38;1048230;28;20600;-71
2021/03/22 01:17:34;;;;;;;29.20;16.30;;;;;;;-1.47;100.00;95857.94;1048008;28;20028;-73
2021/03/22 01:18:05;;;;;;;32.73;16.10;;;;;;;-1.46;100.00;95853.56;1043780;28;20217;-70
2021/03/22 01:18:41;;;;;;;30.23;16.93;;;;;;;-1.46;100.00;95848.44;1039932;28;20033;-71
2021/03/22 01:19:16;;;;;;;29.50;16.58;;;;;;;-1.47;100.00;95852.00;1035620;28;20028;-72
2021/03/22 01:19:46;;;;;;;30.55;16.05;;;;;;;-1.53;100.00;95843.22;1035519;28;20034;-71
2021/03/22 01:20:20;;;;;;;27.83;15.97;;;;;;;-1.45;100.00;95855.16;1031100;28;20035;-71
2021/03/22 01:20:56;;;;;;;33.88;16.85;;;;;;;-1.47;100.00;95852.78;1036732;28;20028;-70
2021/03/22 01:21:33;;;;;;;34.45;15.95;;;;;;;-1.49;100.00;95849.59;1032990;28;20037;-70
2021/03/22 01:22:03;;;;;;;29.05;16.02;;;;;;;-1.49;100.00;95848.78;1039881;28;20422;-73
2021/03/22 01:22:34;;;;;;;32.00;16.53;;;;;;;-1.49;100.00;95851.38;1035647;28;20124;-70
2021/03/22 01:23:04;;;;;;;31.30;17.17;;;;;;;-1.47;100.00;95852.00;1028589;28;20617;-71
2021/03/22 01:23:35;;;;;;;26.10;15.57;;;;;;;-1.49;100.00;95853.94;1027736;28;20157;-70
2021/03/22 01:24:08;;;;;;;29.87;16.63;;;;;;;-1.53;100.00;95850.16;1027818;28;20027;-71
2021/03/22 01:24:38;;;;;;;34.33;17.05;;;;;;;-1.63;100.00;95847.88;1037032;28;20125;-70
2021/03/22 01:25:09;;;;;;;38.23;17.10;;;;;;;-1.52;100.00;95854.31;1044449;28;20119;-71
2021/03/22 01:25:40;;;;;;;34.40;16.93;;;;;;;-1.52;100.00;95849.97;1043912;28;20037;-71
2021/03/22 01:26:11;;;;;;;32.37;17.43;;;;;;;-1.54;100.00;95851.13;1043763;28;20044;-72
2021/03/22 01:26:41;;;;;;;33.37;15.80;;;;;;;-1.50;100.00;95854.94;1040158;28;20041;-70
2021/03/22 01:27:12;;;;;;;31.60;16.73;;;;;;;-1.49;100.00;95856.53;1036036;28;20344;-72
2021/03/22 01:27:42;;;;;;;31.77;16.83;;;;;;;-1.53;100.00;95853.53;1039699;28;20037;-70
2021/03/22 01:28:14;;;;;;;30.97;16.87;;;;;;;-1.52;100.00;95851.75;1039738;28;20033;-71
2021/03/22 01:28:44;;;;;;;30.65;16.83;;;;;;;-1.51;100.00;95856.72;1036021;28;20081;-70
2021/03/22 01:29:15;;;;;;;37.13;16.33;;;;;;;-1.58;100.00;95839.59;1035667;28;20092;-70
2021/03/22 01:29:46;;;;;;;30.58;16.00;;;;;;;-1.51;100.00;95856.72;1036493;28;20037;-71
2021/03/22 01:30:22;;;;;;;31.37;16.80;;;;;;;-1.48;100.00;95850.38;1035296;28;20021;-71
2021/03/22 01:30:57;;;;;;;37.30;17.60;;;;;;;-1.50;100.00;95855.72;1036646;28;20081;-71
2021/03/22 01:31:27;;;;;;;29.60;16.15;;;;;;;-1.49;100.00;95852.16;1039797;28;20037;-71
2021/03/22 01:31:59;;;;;;;32.30;16.17;;;;;;;-1.48;100.00;95850.38;1042506;28;20025;-72
2021/03/22 01:32:29;;;;;;;31.00;16.85;;;;;;;-1.45;100.00;95855.94;1047904;28;20489;-71
2021/03/22 01:33:00;;;;;;;35.37;15.37;;;;;;;-1.48;100.00;95853.75;1048540;28;20025;-73
2021/03/22 01:33:36;;;;;;;27.37;15.13;;;;;;;-1.56;100.00;95841.03;1043957;28;20482;-71
2021/03/22 01:34:06;;;;;;;31.40;17.05;;;;;;;-1.45;100.00;95850.81;1039821;28;20064;-71
2021/03/22 01:34:37;;;;;;;32.00;15.87;;;;;;;-1.36;100.00;95854.06;1035437;28;20030;-71
2021/03/22 01:35:08;;;;;;;30.60;17.03;;;;;;;-1.44;100.00;95838.75;1033337;28;20027;-70
2021/03/22 01:35:38;;;;;;;29.92;15.90;;;;;;;-1.34;100.00;95854.69;1039810;28;20060;-71
2021/03/22 01:36:11;;;;;;;34.53;18.13;;;;;;;-1.32;100.00;95855.28;1036830;28;20029;-71
2021/03/22 01:36:41;;;;;;;31.35;17.48;;;;;;;-1.32;100.00;95855.28;1035930;28;20025;-71
2021/03/22 01:37:12;;;;;;;33.00;15.57;;;;;;;-1.36;100.00;95845.56;1031656;28;20034;-71
2021/03/22 01:37:42;;;;;;;28.73;15.57;;;;;;;-1.26;100.00;95851.19;1035564;28;20021;-70
2021/03/22 01:38:13;;;;;;;31.77;16.10;;;;;;;-1.30;100.00;95850.75;1039629;28;20025;-71
2021/03/22 01:38:43;;;;;;;36.00;15.20;;;;;;;-1.24;100.00;95852.59;1039804;28;20391;-72
2021/03/22 01:39:16;;;;;;;31.57;16.27;;;;;;;-1.22;100.00;95850.63;1035773;28;20010;-72
2021/03/22 01:39:46;;;;;;;36.05;15.77;;;;;;;-1.20;100.00;95853.03;1039735;28;20125;-72
2021/03/22 01:40:42;;;;;;;35.97;16.07;;;;;;;-1.17;100.00;95846.69;1043050;28;20029;-71
2021/03/22 01:41:34;;;;;;;29.13;15.25;;;;;;;-1.15;100.00;95844.72;1032295;28;20065;-74
2021/03/22 01:42:21;;;;;;;31.00;16.02;;;;;;;-1.19;100.00;95834.00;1047561;28;20467;-72
2021/03/22 01:43:02;;;;;;;27.95;15.65;;;;;;;-1.06;100.00;95846.19;1038085;28;20661;-72
2021/03/22 01:43:58;;;;;;;28.52;14.73;;;;;;;-1.04;100.00;95849.34;1033566;28;20096;-71
2021/03/22 01:44:41;;;;;;;27.58;14.82;;;;;;;-1.01;100.00;95851.56;1036777;28;20022;-72
2021/03/22 01:45:12;;;;;;;30.13;15.75;;;;;;;-1.04;100.00;95836.47;1033618;28;20018;-71
2021/03/22 01:45:43;;;;;;;24.40;14.47;;;;;;;-1.00;100.00;95845.44;1027608;28;20030;-71
2021/03/22 01:46:13;;;;;;;24.83;15.40;;;;;;;-0.97;100.00;95845.06;1035414;28;20025;-71
2021/03/22 01:46:51;;;;;;;31.70;15.43;;;;;;;-0.99;100.00;95840.09;1031656;28;20504;-71
2021/03/22 01:47:29;;;;;;;30.83;15.88;;;;;;;-1.01;100.00;95836.09;1036714;28;20014;-70
2021/03/22 01:47:59;;;;;;;32.90;15.60;;;;;;;-1.04;100.00;95828.75;1031263;28;20488;-71
2021/03/22 01:48:30;;;;;;;27.63;15.43;;;;;;;-0.95;100.00;95843.09;1035856;28;20026;-71
2021/03/22 01:49:00;;;;;;;39.73;15.57;;;;;;;-0.93;100.00;95843.72;1035251;28;20026;-72
2021/03/22 01:49:34;;;;;;;26.23;15.03;;;;;;;-0.91;100.00;95836.56;1039890;28;20025;-72
2021/03/22 01:50:13;;;;;;;35.88;15.85;;;;;;;-0.89;100.00;95836.41;1034950;28;20010;-71
2021/03/22 01:50:43;;;;;;;32.97;16.27;;;;;;;-0.92;100.00;95831.63;1036986;28;20578;-71
2021/03/22 01:51:13;;;;;;;26.07;14.97;;;;;;;-0.86;100.00;95839.41;1035423;28;20018;-70
2021/03/22 01:51:44;;;;;;;31.50;15.57;;;;;;;-0.94;100.00;95826.66;1035667;28;20483;-72
2021/03/22 01:52:16;;;;;;;26.70;15.60;;;;;;;-0.85;100.00;95835.81;1031721;28;20026;-71
2021/03/22 01:52:46;;;;;;;30.27;15.90;;;;;;;-0.86;100.00;95834.25;1031715;28;20034;-71
2021/03/22 01:53:17;;;;;;;23.43;14.50;;;;;;;-0.84;100.00;95829.72;1031285;28;20067;-72
2021/03/22 01:53:47;;;;;;;31.77;15.17;;;;;;;-0.91;100.00;95826.28;1035759;28;20100;-71
2021/03/22 01:54:18;;;;;;;26.23;14.40;;;;;;;-0.92;100.00;95819.53;1030905;28;20029;-71
2021/03/22 01:54:50;;;;;;;34.60;16.57;;;;;;;-0.84;100.00;95832.28;1031686;28;20365;-71
2021/03/22 01:55:21;;;;;;;28.80;15.52;;;;;;;-0.84;100.00;95832.28;1031445;28;20030;-71
2021/03/22 01:56:12;;;;;;;29.13;14.70;;;;;;;-0.81;100.00;95836.25;1037785;28;20110;-69
2021/03/22 01:56:47;;;;;;;28.25;15.60;;;;;;;-0.81;100.00;95834.47;1039279;28;20033;-71
2021/03/22 01:57:24;;;;;;;25.65;14.55;;;;;;;-0.87;100.00;95817.22;1039702;28;20458;-71
2021/03/22 01:57:55;;;;;;;28.17;14.55;;;;;;;-0.81;100.00;95826.72;1039764;28;20153;-70
2021/03/22 01:58:25;;;;;;;28.97;15.10;;;;;;;-0.90;100.00;95821.94;1041292;28;20035;-71
2021/03/22 01:58:56;;;;;;;24.83;14.20;;;;;;;-0.79;100.00;95837.66;1039887;28;20040;-71
2021/03/22 01:59:28;;;;;;;26.93;15.00;;;;;;;-0.77;100.00;95827.16;1035262;28;20026;-71
2021/03/22 02:00:19;;;;;;;28.23;15.77;;;;;;;-0.77;100.00;95832.31;1031312;28;20507;-71
2021/03/22 02:00:49;;;;;;;25.77;14.40;;;;;;;-0.75;100.00;95846.59;1038260;28;20030;-71
2021/03/22 02:01:20;;;;;;;29.20;14.30;;;;;;;-0.82;100.00;95819.22;1038775;28;20505;-71
2021/03/22 02:01:52;;;;;;;31.92;16.33;;;;;;;-0.74;100.00;95837.06;1037436;28;20406;-72
2021/03/22 02:02:23;;;;;;;23.83;15.00;;;;;;;-0.73;100.00;95834.31;1039655;28;20025;-70
2021/03/22 02:03:03;;;;;;;30.07;15.07;;;;;;;-0.76;100.00;95829.56;1039380;28;20025;-72
2021/03/22 02:03:34;;;;;;;;;;;;;;;-0.73;100.00;95833.53;1040074;28;20017;-71
2021/03/22 02:04:04;;;;;;;26.17;13.43;;;;;;;-0.73;100.00;95838.69;1036945;28;20033;-72
2021/03/22 02:04:35;;;;;;;29.47;14.23;;;;;;;-0.74;100.00;95842.22;1042541;28;20048;-71
2021/03/22 02:05:06;;;;;;;37.87;15.40;;;;;;;-0.81;100.00;95826.72;1039701;28;20498;-71
2021/03/22 02:05:39;;;;;;;26.27;15.25;;;;;;;-0.75;100.00;95832.91;1031548;28;20026;-73
2021/03/22 02:06:10;;;;;;;24.80;14.30;;;;;;;-0.74;100.00;95831.94;1029708;28;20065;-71
2021/03/22 02:06:40;;;;;;;29.47;14.63;;;;;;;-0.72;100.00;95835.91;1035650;28;20506;-73
2021/03/22 02:07:11;;;;;;;29.10;15.13;;;;;;;-0.72;100.00;95829.97;1031567;28;20022;-71
2021/03/22 02:07:41;;;;;;;28.23;15.37;;;;;;;-0.71;100.00;95831.56;1031083;28;20030;-72
2021/03/22 02:08:27;;;;;;;28.07;14.30;;;;;;;-0.68;100.00;95836.31;1035470;28;20033;-70
2021/03/22 02:08:58;;;;;;;26.13;14.63;;;;;;;-0.67;100.00;95831.97;1037686;28;20018;-71
2021/03/22 02:09:28;;;;;;;28.65;15.15;;;;;;;-0.67;100.00;95831.97;1041459;28;20029;-71
2021/03/22 02:09:59;;;;;;;28.00;14.97;;;;;;;-0.66;100.00;95836.94;1042968;28;20082;-70
2021/03/22 02:10:30;;;;;;;31.13;15.80;;;;;;;-0.69;100.00;95823.66;1041062;28;20033;-71
2021/03/22 02:11:00;;;;;;;29.40;14.57;;;;;;;-0.75;100.00;95820.84;1039485;28;20112;-71
2021/03/22 02:11:32;;;;;;;36.77;15.87;;;;;;;-0.71;100.00;95822.03;1035690;28;20046;-71
2021/03/22 02:12:17;;;;;;;36.47;15.30;;;;;;;-0.63;100.00;95839.16;1031517;28;20058;-70
2021/03/22 02:12:48;;;;;;;27.13;14.82;;;;;;;-0.64;100.00;95836.75;1035079;28;20033;-72
2021/03/22 02:13:22;;;;;;;28.37;14.23;;;;;;;-0.65;100.00;95841.09;1034988;28;20458;-71
2021/03/22 02:13:53;;;;;;;29.38;14.70;;;;;;;-0.64;100.00;95831.59;1033963;28;20672;-71
2021/03/22 02:14:23;;;;;;;31.08;15.93;;;;;;;-0.69;100.00;95828.81;1031166;28;20073;-71
2021/03/22 02:14:54;;;;;;;24.00;14.33;;;;;;;-0.65;100.00;95832.59;1035469;28;20029;-71
2021/03/22 02:15:24;;;;;;;25.83;14.63;;;;;;;-0.72;100.00;95817.09;1039603;28;20446;-71
2021/03/22 02:16:04;;;;;;;30.43;14.30;;;;;;;-0.62;100.00;95835.56;1031626;28;20109;-72
2021/03/22 02:16:57;;;;;;;25.75;14.63;;;;;;;-0.60;100.00;95831.03;1034812;28;20065;-70
2021/03/22 02:17:42;;;;;;;25.90;14.27;;;;;;;-0.60;100.00;95832.81;1035737;28;20018;-71
2021/03/22 02:18:22;;;;;;;26.77;13.75;;;;;;;-0.60;100.00;95835.41;1033529;28;20014;-70
2021/03/22 02:19:00;;;;;;;28.95;15.20;;;;;;;-0.61;100.00;95842.31;1041425;28;20068;-70
2021/03/22 02:20:05;;;;;;;30.92;14.05;;;;;;;-0.59;100.00;95836.97;1039738;28;20018;-71
2021/03/22 02:20:54;;;;;;;26.63;14.00;;;;;;;-0.59;100.00;95839.56;1041233;28;20052;-71
2021/03/22 02:21:42;;;;;;;27.00;13.48;;;;;;;-0.61;100.00;95844.09;1048036;28;20051;-70
2021/03/22 02:22:35;;;;;;;26.67;13.88;;;;;;;-0.59;100.00;95840.34;1047747;28;20036;-71
2021/03/22 02:23:27;;;;;;;26.58;14.40;;;;;;;-0.60;100.00;95840.56;1041715;28;20024;-72
2021/03/22 02:24:03;;;;;;;34.95;15.60;;;;;;;-0.60;100.00;95843.13;1041312;28;20033;-72
2021/03/22 02:24:57;;;;;;;28.83;13.85;;;;;;;-0.61;100.00;95844.09;1039601;28;20021;-71
2021/03/22 02:25:48;;;;;;;31.00;14.80;;;;;;;-0.62;100.00;95842.50;1043718;28;20029;-70
2021/03/22 02:26:56;;;;;;;33.30;15.07;;;;;;;-0.64;100.00;95847.84;1039557;28;20344;-71
2021/03/22 02:27:50;;;;;;;27.55;13.73;;;;;;;-0.61;100.00;95844.88;1043376;28;20017;-70
2021/03/22 02:28:45;;;;;;;29.15;13.90;;;;;;;-0.62;100.00;95850.25;1043463;28;20061;-70
2021/03/22 02:29:37;;;;;;;32.88;13.90;;;;;;;-0.63;100.00;95849.44;1043868;28;20021;-70
2021/03/22 02:30:32;;;;;;;30.92;14.00;;;;;;;-0.63;100.00;95849.44;1043713;28;20135;-71
2021/03/22 02:31:39;;;;;;;26.42;14.07;;;;;;;-0.60;100.00;95848.28;1039354;28;20031;-71
2021/03/22 02:32:18;;;;;;;32.42;14.60;;;;;;;-0.60;100.00;95848.28;1039528;28;20061;-70